Prudentia — PB4900 — position and weather

sailwx.info

Track history (hours):
 
Tides and Currents Weather Stations Pressure Air Temp Water Temp Dewpoint Dewpoint Depression Visibility Wind Speed Wind Dir Waves Ship Positions

Prudentia

Last reported at 2015-Feb-28 01:27 UTC. Time now 2015-Feb-28 01:59 UTC.
Position N 52°10' E 006°15'.

Length 70 m; draft 1.8 m.

Type: Ship. MMSI: 244660779.

Date/timePositionNaut miles runAvg speedWind from/ knotsBaromVisibWave heightAir tempDewpointWater temp
2015-Feb-28 01:27N 52°10' E 006°15'0 0.0
2015-Feb-28 00:23N 52°10' E 006°15'0 0.0
2015-Feb-27 23:33N 52°10' E 006°15'0 0.0
2015-Feb-27 22:20N 52°10' E 006°15'0 0.0
2015-Feb-27 21:21N 52°10' E 006°15'0 0.0
2015-Feb-27 20:21N 52°10' E 006°15'5 6.0
2015-Feb-27 19:33N 52°10' E 006°23'7 7.2
2015-Feb-27 18:33N 52°13' E 006°33'6 5.6
2015-Feb-27 17:32N 52°15' E 006°42'0 0.1
2015-Feb-27 16:19N 52°15' E 006°42'0 0.0
2015-Feb-27 15:33N 52°15' E 006°42'0 0.0
2015-Feb-27 14:09N 52°15' E 006°42'0 0.0
2015-Feb-27 13:16N 52°15' E 006°42'0 0.0
2015-Feb-27 10:23N 52°15' E 006°42'0 0.1
2015-Feb-27 09:33N 52°15' E 006°42'0 0.0
2015-Feb-27 08:34N 52°15' E 006°42'0 0.0
2015-Feb-27 07:34N 52°15' E 006°42'0 0.0
2015-Feb-27 06:34N 52°15' E 006°42'0 0.0
2015-Feb-27 05:34N 52°15' E 006°42'0 0.0
2015-Feb-27 04:33N 52°15' E 006°42'0 0.0
2015-Feb-27 03:34N 52°15' E 006°42'0 0.0
2015-Feb-27 02:34N 52°15' E 006°42'0 0.0
2015-Feb-27 01:33N 52°15' E 006°42'0 0.0
2015-Feb-27 00:34N 52°15' E 006°42'0 0.0
2015-Feb-26 23:34N 52°15' E 006°42'0 0.0
2015-Feb-26 22:33N 52°15' E 006°42'0 0.0
2015-Feb-26 21:34N 52°15' E 006°42'0 0.0
2015-Feb-26 20:34N 52°15' E 006°42'0 0.0
2015-Feb-26 19:34N 52°15' E 006°42'0 0.0
2015-Feb-26 18:34N 52°15' E 006°42'0 0.0
2015-Feb-26 17:34N 52°15' E 006°42'0 0.0
2015-Feb-26 16:34N 52°15' E 006°42'0 0.0
2015-Feb-26 15:34N 52°15' E 006°42'0 0.0
2015-Feb-26 14:34N 52°15' E 006°42'2 1.8
2015-Feb-26 13:34N 52°14' E 006°39'6 5.8
2015-Feb-26 12:31N 52°12' E 006°30'5 5.3
2015-Feb-26 11:33N 52°10' E 006°22'6 2.8
2015-Feb-26 09:33N 52°10' E 006°14'3 3.2
2015-Feb-26 08:31N 52°12' E 006°10'13 4.1
2015-Feb-26 05:14N 52°25' E 006°08'4 5.1
2015-Feb-26 04:30N 52°29' E 006°05'1 1.4
2015-Feb-26 03:34N 52°30' E 006°03'0 0.0
2015-Feb-26 02:34N 52°30' E 006°03'0 0.0
2015-Feb-26 01:34N 52°30' E 006°03'0 0.0
2015-Feb-26 00:34N 52°30' E 006°03'0 0.0
2015-Feb-25 23:34N 52°30' E 006°03'1 0.9
2015-Feb-25 22:34N 52°30' E 006°02'10 4.7
2015-Feb-25 20:23N 52°35' E 005°47'6 7.0
2015-Feb-25 19:32N 52°37' E 005°38'7 7.5
2015-Feb-25 18:34N 52°33' E 005°27'6 5.7
2015-Feb-25 17:33N 52°30' E 005°20'7 7.4
2015-Feb-25 16:34N 52°26' E 005°10'7 7.3
2015-Feb-25 15:34N 52°22' E 004°59'5 4.9
2015-Feb-25 14:33N 52°24' E 004°52'0 0.3
2015-Feb-25 13:33N 52°24' E 004°52'0 0.0
2015-Feb-25 12:33N 52°24' E 004°52'0 0.0
2015-Feb-25 11:33N 52°24' E 004°52'0 0.1
2015-Feb-25 10:33N 52°24' E 004°51'0 0.0
2015-Feb-25 09:33N 52°24' E 004°51'1 1.0
2015-Feb-25 08:33N 52°24' E 004°53'7 7.0
2015-Feb-25 07:34N 52°19' E 005°01'9 8.8
2015-Feb-25 06:33N 52°10' E 004°60'8 8.4
2015-Feb-25 05:33N 52°03' E 005°06'8 8.4
2015-Feb-25 04:33N 51°58' E 005°18'1 0.5
2015-Feb-25 03:33N 51°58' E 005°19'0 0.0
2015-Feb-25 02:33N 51°58' E 005°19'0 0.0
2015-Feb-25 01:33N 51°58' E 005°19'0 0.0
2015-Feb-25 00:33N 51°58' E 005°19'0 0.0
2015-Feb-24 23:33N 51°58' E 005°19'0 0.0
2015-Feb-24 22:33N 51°58' E 005°19'0 0.0
2015-Feb-24 21:33N 51°58' E 005°19'0 0.0
2015-Feb-24 20:34N 51°58' E 005°19'1 0.8
2015-Feb-24 19:34N 51°58' E 005°20'6 5.9
2015-Feb-24 18:33N 51°54' E 005°27'8 8.4
2015-Feb-24 17:33N 51°54' E 005°41'7 0.8
2015-Feb-24 09:26N 51°51' E 005°51'0 0.0
2015-Feb-24 08:32N 51°51' E 005°51'0 0.0
2015-Feb-24 06:20N 51°51' E 005°51'0 0.0
2015-Feb-24 02:15N 51°51' E 005°51'0 0.0
2015-Feb-24 00:21N 51°51' E 005°51'0 0.0
2015-Feb-23 23:29N 51°51' E 005°51'0 0.0
2015-Feb-23 19:30N 51°51' E 005°51'0 0.0
2015-Feb-23 18:32N 51°51' E 005°51'0 0.0
2015-Feb-23 17:33N 51°51' E 005°51'0 0.0
2015-Feb-23 16:24N 51°51' E 005°51'0 0.0
2015-Feb-23 15:27N 51°51' E 005°51'0 0.0
2015-Feb-23 11:33N 51°51' E 005°51'0 0.0
2015-Feb-23 10:12N 51°51' E 005°51'0 0.0
2015-Feb-23 05:07N 51°51' E 005°51'0 0.0
2015-Feb-23 03:11N 51°51' E 005°51'0 0.0
2015-Feb-23 02:32N 51°51' E 005°51'0 0.0
2015-Feb-23 01:31N 51°51' E 005°51'0 0.0
2015-Feb-23 00:22N 51°51' E 005°51'0 0.0
2015-Feb-22 23:33N 51°51' E 005°51'0 0.0
2015-Feb-22 20:28N 51°51' E 005°51'0 0.0
2015-Feb-22 14:34N 51°51' E 005°51'0 0.0
2015-Feb-22 13:29N 51°51' E 005°51'0 0.0
2015-Feb-22 07:30N 51°51' E 005°51'0 0.0
2015-Feb-22 04:10N 51°51' E 005°51'0 0.0
2015-Feb-21 08:27N 51°51' E 005°51'0 0.0
2015-Feb-21 07:29N 51°51' E 005°51'0 0.0
2015-Feb-21 05:07N 51°51' E 005°51'0 0.0
2015-Feb-21 01:21N 51°51' E 005°51'0 0.0
2015-Feb-20 20:26N 51°51' E 005°51'0 0.0
2015-Feb-20 15:10N 51°51' E 005°51'0 0.0
2015-Feb-20 00:07N 51°51' E 005°51'0 0.0
2015-Feb-19 21:03N 51°51' E 005°51'0 0.0
2015-Feb-19 18:24N 51°51' E 005°51'0 0.0
2015-Feb-19 16:32N 51°51' E 005°51'0 0.0
2015-Feb-19 14:05N 51°51' E 005°51'0 0.0
2015-Feb-19 12:19N 51°51' E 005°51'0 0.0
2015-Feb-19 11:21N 51°51' E 005°51'0 0.0
2015-Feb-19 10:23N 51°51' E 005°51'0 0.0
2015-Feb-19 08:16N 51°51' E 005°51'0 0.0
2015-Feb-19 01:19N 51°51' E 005°51'0 0.0
2015-Feb-19 00:09N 51°51' E 005°51'0 0.0
2015-Feb-18 22:29N 51°51' E 005°51'0 0.0
2015-Feb-18 21:10N 51°51' E 005°51'0 0.0
2015-Feb-18 20:22N 51°51' E 005°51'0 0.0
2015-Feb-18 19:14N 51°51' E 005°51'0 0.0
2015-Feb-18 18:06N 51°51' E 005°51'0 0.0
2015-Feb-18 14:29N 51°51' E 005°51'0 0.0
2015-Feb-18 10:24N 51°51' E 005°51'0 0.0
2015-Feb-18 02:24N 51°51' E 005°51'  
Track history (hours):
 
Tides and Currents Weather Stations Pressure Air Temp Water Temp Dewpoint Dewpoint Depression Visibility Wind Speed Wind Dir Waves Ship Positions

Prudentia

Last reported at 2015-Feb-28 01:27 UTC. Time now 2015-Feb-28 01:59 UTC.
Position N 52°10' E 006°15'.

Length 70 m; draft 1.8 m.

Type: Ship. MMSI: 244660779.

Date/timePositionNaut miles runAvg speedWind from/ knotsBaromVisibWave heightAir tempDewpointWater temp
2015-Feb-28 01:27N 52°10' E 006°15'0 0.0
2015-Feb-28 00:23N 52°10' E 006°15'0 0.0
2015-Feb-27 23:33N 52°10' E 006°15'0 0.0
2015-Feb-27 22:20N 52°10' E 006°15'0 0.0
2015-Feb-27 21:21N 52°10' E 006°15'0 0.0
2015-Feb-27 20:21N 52°10' E 006°15'5 6.0
2015-Feb-27 19:33N 52°10' E 006°23'7 7.2
2015-Feb-27 18:33N 52°13' E 006°33'6 5.6
2015-Feb-27 17:32N 52°15' E 006°42'0 0.1
2015-Feb-27 16:19N 52°15' E 006°42'0 0.0
2015-Feb-27 15:33N 52°15' E 006°42'0 0.0
2015-Feb-27 14:09N 52°15' E 006°42'0 0.0
2015-Feb-27 13:16N 52°15' E 006°42'0 0.0
2015-Feb-27 10:23N 52°15' E 006°42'0 0.1
2015-Feb-27 09:33N 52°15' E 006°42'0 0.0
2015-Feb-27 08:34N 52°15' E 006°42'0 0.0
2015-Feb-27 07:34N 52°15' E 006°42'0 0.0
2015-Feb-27 06:34N 52°15' E 006°42'0 0.0
2015-Feb-27 05:34N 52°15' E 006°42'0 0.0
2015-Feb-27 04:33N 52°15' E 006°42'0 0.0
2015-Feb-27 03:34N 52°15' E 006°42'0 0.0
2015-Feb-27 02:34N 52°15' E 006°42'0 0.0
2015-Feb-27 01:33N 52°15' E 006°42'0 0.0
2015-Feb-27 00:34N 52°15' E 006°42'0 0.0
2015-Feb-26 23:34N 52°15' E 006°42'0 0.0
2015-Feb-26 22:33N 52°15' E 006°42'0 0.0
2015-Feb-26 21:34N 52°15' E 006°42'0 0.0
2015-Feb-26 20:34N 52°15' E 006°42'0 0.0
2015-Feb-26 19:34N 52°15' E 006°42'0 0.0
2015-Feb-26 18:34N 52°15' E 006°42'0 0.0
2015-Feb-26 17:34N 52°15' E 006°42'0 0.0
2015-Feb-26 16:34N 52°15' E 006°42'0 0.0
2015-Feb-26 15:34N 52°15' E 006°42'0 0.0
2015-Feb-26 14:34N 52°15' E 006°42'2 1.8
2015-Feb-26 13:34N 52°14' E 006°39'6 5.8
2015-Feb-26 12:31N 52°12' E 006°30'5 5.3
2015-Feb-26 11:33N 52°10' E 006°22'6 2.8
2015-Feb-26 09:33N 52°10' E 006°14'3 3.2
2015-Feb-26 08:31N 52°12' E 006°10'13 4.1
2015-Feb-26 05:14N 52°25' E 006°08'4 5.1
2015-Feb-26 04:30N 52°29' E 006°05'1 1.4
2015-Feb-26 03:34N 52°30' E 006°03'0 0.0
2015-Feb-26 02:34N 52°30' E 006°03'0 0.0
2015-Feb-26 01:34N 52°30' E 006°03'0 0.0
2015-Feb-26 00:34N 52°30' E 006°03'0 0.0
2015-Feb-25 23:34N 52°30' E 006°03'1 0.9
2015-Feb-25 22:34N 52°30' E 006°02'10 4.7
2015-Feb-25 20:23N 52°35' E 005°47'6 7.0
2015-Feb-25 19:32N 52°37' E 005°38'7 7.5
2015-Feb-25 18:34N 52°33' E 005°27'6 5.7
2015-Feb-25 17:33N 52°30' E 005°20'7 7.4
2015-Feb-25 16:34N 52°26' E 005°10'7 7.3
2015-Feb-25 15:34N 52°22' E 004°59'5 4.9
2015-Feb-25 14:33N 52°24' E 004°52'0 0.3
2015-Feb-25 13:33N 52°24' E 004°52'0 0.0
2015-Feb-25 12:33N 52°24' E 004°52'0 0.0
2015-Feb-25 11:33N 52°24' E 004°52'0 0.1
2015-Feb-25 10:33N 52°24' E 004°51'0 0.0
2015-Feb-25 09:33N 52°24' E 004°51'1 1.0
2015-Feb-25 08:33N 52°24' E 004°53'7 7.0
2015-Feb-25 07:34N 52°19' E 005°01'9 8.8
2015-Feb-25 06:33N 52°10' E 004°60'8 8.4
2015-Feb-25 05:33N 52°03' E 005°06'8 8.4
2015-Feb-25 04:33N 51°58' E 005°18'1 0.5
2015-Feb-25 03:33N 51°58' E 005°19'0 0.0
2015-Feb-25 02:33N 51°58' E 005°19'0 0.0
2015-Feb-25 01:33N 51°58' E 005°19'0 0.0
2015-Feb-25 00:33N 51°58' E 005°19'0 0.0
2015-Feb-24 23:33N 51°58' E 005°19'0 0.0
2015-Feb-24 22:33N 51°58' E 005°19'0 0.0
2015-Feb-24 21:33N 51°58' E 005°19'0 0.0
2015-Feb-24 20:34N 51°58' E 005°19'1 0.8
2015-Feb-24 19:34N 51°58' E 005°20'6 5.9
2015-Feb-24 18:33N 51°54' E 005°27'8 8.4
2015-Feb-24 17:33N 51°54' E 005°41'7 0.8
2015-Feb-24 09:26N 51°51' E 005°51'0 0.0
2015-Feb-24 08:32N 51°51' E 005°51'0 0.0
2015-Feb-24 06:20N 51°51' E 005°51'0 0.0
2015-Feb-24 02:15N 51°51' E 005°51'0 0.0
2015-Feb-24 00:21N 51°51' E 005°51'0 0.0
2015-Feb-23 23:29N 51°51' E 005°51'0 0.0
2015-Feb-23 19:30N 51°51' E 005°51'0 0.0
2015-Feb-23 18:32N 51°51' E 005°51'0 0.0
2015-Feb-23 17:33N 51°51' E 005°51'0 0.0
2015-Feb-23 16:24N 51°51' E 005°51'0 0.0
2015-Feb-23 15:27N 51°51' E 005°51'0 0.0
2015-Feb-23 11:33N 51°51' E 005°51'0 0.0
2015-Feb-23 10:12N 51°51' E 005°51'0 0.0
2015-Feb-23 05:07N 51°51' E 005°51'0 0.0
2015-Feb-23 03:11N 51°51' E 005°51'0 0.0
2015-Feb-23 02:32N 51°51' E 005°51'0 0.0
2015-Feb-23 01:31N 51°51' E 005°51'0 0.0
2015-Feb-23 00:22N 51°51' E 005°51'0 0.0
2015-Feb-22 23:33N 51°51' E 005°51'0 0.0
2015-Feb-22 20:28N 51°51' E 005°51'0 0.0
2015-Feb-22 14:34N 51°51' E 005°51'0 0.0
2015-Feb-22 13:29N 51°51' E 005°51'0 0.0
2015-Feb-22 07:30N 51°51' E 005°51'0 0.0
2015-Feb-22 04:10N 51°51' E 005°51'0 0.0
2015-Feb-21 08:27N 51°51' E 005°51'0 0.0
2015-Feb-21 07:29N 51°51' E 005°51'0 0.0
2015-Feb-21 05:07N 51°51' E 005°51'0 0.0
2015-Feb-21 01:21N 51°51' E 005°51'0 0.0
2015-Feb-20 20:26N 51°51' E 005°51'0 0.0
2015-Feb-20 15:10N 51°51' E 005°51'0 0.0
2015-Feb-20 00:07N 51°51' E 005°51'0 0.0
2015-Feb-19 21:03N 51°51' E 005°51'0 0.0
2015-Feb-19 18:24N 51°51' E 005°51'0 0.0
2015-Feb-19 16:32N 51°51' E 005°51'0 0.0
2015-Feb-19 14:05N 51°51' E 005°51'0 0.0
2015-Feb-19 12:19N 51°51' E 005°51'0 0.0
2015-Feb-19 11:21N 51°51' E 005°51'0 0.0
2015-Feb-19 10:23N 51°51' E 005°51'0 0.0
2015-Feb-19 08:16N 51°51' E 005°51'0 0.0
2015-Feb-19 01:19N 51°51' E 005°51'0 0.0
2015-Feb-19 00:09N 51°51' E 005°51'0 0.0
2015-Feb-18 22:29N 51°51' E 005°51'0 0.0
2015-Feb-18 21:10N 51°51' E 005°51'0 0.0
2015-Feb-18 20:22N 51°51' E 005°51'0 0.0
2015-Feb-18 19:14N 51°51' E 005°51'0 0.0
2015-Feb-18 18:06N 51°51' E 005°51'0 0.0
2015-Feb-18 14:29N 51°51' E 005°51'0 0.0
2015-Feb-18 10:24N 51°51' E 005°51'0 0.0
2015-Feb-18 02:24N 51°51' E 005°51'  

Dump ship's entire track history